createdAt,value
2023-04-07T00:00:38.821Z,8.15
2023-04-07T00:02:42.460Z,8.55
2023-04-07T00:04:50.411Z,8.63
2023-04-07T00:06:51.890Z,9.15
2023-04-07T00:08:53.629Z,9.82
2023-04-07T00:10:55.340Z,9.48
2023-04-07T00:12:56.803Z,9.50
2023-04-07T00:14:58.286Z,8.73
2023-04-07T00:16:59.841Z,8.93
2023-04-07T00:19:04.292Z,9.85
2023-04-07T00:21:06.095Z,9.32
2023-04-07T00:23:07.775Z,8.85
2023-04-07T00:25:09.788Z,9.15
2023-04-07T00:27:14.253Z,9.32
2023-04-07T00:29:15.759Z,9.07
2023-04-07T00:31:17.537Z,8.98
2023-04-07T00:33:19.306Z,9.30
2023-04-07T00:35:21.090Z,8.70
2023-04-07T00:37:22.717Z,9.25
2023-04-07T00:39:28.722Z,8.98
2023-04-07T00:41:30.474Z,9.15
2023-04-07T00:43:34.660Z,8.93
2023-04-07T00:45:36.973Z,9.50
2023-04-07T00:47:38.894Z,8.95
2023-04-07T00:49:40.438Z,8.80
2023-04-07T00:51:41.905Z,8.60
2023-04-07T00:53:43.830Z,8.95
2023-04-07T00:55:48.257Z,9.25
2023-04-07T00:57:50.666Z,8.50
2023-04-07T00:59:52.928Z,8.40
2023-04-07T01:02:08.143Z,8.73
2023-04-07T01:04:15.569Z,8.15
2023-04-07T01:06:20.974Z,7.28
2023-04-07T01:08:43.886Z,7.35
2023-04-07T01:10:56.800Z,7.65
2023-04-07T01:13:05.791Z,7.22
2023-04-07T01:15:11.123Z,7.72
2023-04-07T01:17:21.112Z,7.00
2023-04-07T01:19:28.538Z,7.10
2023-04-07T01:21:35.073Z,7.18
2023-04-07T01:24:09.883Z,6.70
2023-04-07T01:26:22.039Z,6.72
2023-04-07T01:28:37.072Z,6.00
2023-04-07T01:30:41.695Z,6.90
2023-04-07T01:32:47.327Z,6.43
2023-04-07T01:34:53.333Z,5.47
2023-04-07T01:36:56.179Z,5.85
2023-04-07T01:39:02.404Z,5.55
2023-04-07T01:41:04.655Z,5.90
2023-04-07T01:43:07.026Z,5.40
2023-04-07T01:45:15.887Z,5.90
2023-04-07T01:47:20.007Z,5.55
2023-04-07T01:49:23.458Z,5.05
2023-04-07T01:51:27.472Z,5.45
2023-04-07T01:53:30.458Z,4.65
2023-04-07T01:55:32.635Z,5.80
2023-04-07T01:57:40.641Z,5.25
2023-04-07T01:59:48.461Z,4.72
2023-04-07T02:01:51.481Z,5.40
2023-04-07T02:04:02.392Z,5.40
2023-04-07T02:06:08.214Z,5.03
2023-04-07T02:08:11.664Z,5.22
2023-04-07T02:10:17.575Z,4.60
2023-04-07T02:12:20.511Z,4.88
2023-04-07T02:14:33.920Z,4.72
2023-04-07T02:16:46.798Z,5.30
2023-04-07T02:18:54.749Z,4.70
2023-04-07T02:20:57.321Z,4.78
2023-04-07T02:22:59.217Z,4.72
2023-04-07T02:25:00.814Z,5.05
2023-04-07T02:27:02.516Z,5.50
2023-04-07T02:29:05.120Z,5.30
2023-04-07T02:31:06.691Z,5.30
2023-04-07T02:33:12.465Z,5.07
2023-04-07T02:35:14.959Z,5.38
2023-04-07T02:37:16.465Z,5.82
2023-04-07T02:39:18.045Z,6.03
2023-04-07T02:41:19.551Z,5.65
2023-04-07T02:43:21.441Z,5.90
2023-04-07T02:45:26.525Z,5.75
2023-04-07T02:47:28.011Z,5.82
2023-04-07T02:49:32.142Z,5.70
2023-04-07T02:51:34.357Z,5.70
2023-04-07T02:53:38.941Z,5.55
2023-04-07T02:55:43.630Z,5.60
2023-04-07T02:57:45.354Z,5.53
2023-04-07T02:59:58.192Z,5.40
2023-04-07T03:02:11.408Z,5.72
2023-04-07T03:04:13.573Z,5.95
2023-04-07T03:06:24.445Z,5.47
2023-04-07T03:08:43.318Z,5.53
2023-04-07T03:10:45.368Z,5.25
2023-04-07T03:12:47.299Z,5.55
2023-04-07T03:14:51.714Z,5.80
2023-04-07T03:16:53.213Z,5.38
2023-04-07T03:18:56.648Z,5.65
2023-04-07T03:20:58.458Z,5.73
2023-04-07T03:23:01.814Z,5.53
2023-04-07T03:25:05.445Z,5.82
2023-04-07T03:27:07.330Z,6.07
2023-04-07T03:29:19.630Z,5.63
2023-04-07T03:31:21.216Z,5.57
2023-04-07T03:33:29.330Z,5.83
2023-04-07T03:35:33.444Z,5.50
2023-04-07T03:37:34.981Z,5.00
2023-04-07T03:39:37.616Z,5.73
2023-04-07T03:41:48.812Z,5.95
2023-04-07T03:43:50.414Z,5.45
2023-04-07T03:45:53.509Z,5.65
2023-04-07T03:47:56.938Z,6.10
2023-04-07T03:49:59.398Z,5.65
2023-04-07T03:52:02.028Z,6.18
2023-04-07T03:54:04.019Z,5.53
2023-04-07T03:56:10.109Z,5.78
2023-04-07T03:58:21.223Z,5.30
2023-04-07T04:00:23.762Z,5.88
2023-04-07T04:02:38.803Z,5.87
2023-04-07T04:04:41.378Z,5.68
2023-04-07T04:06:44.296Z,5.80
2023-04-07T04:09:06.070Z,5.85
2023-04-07T04:11:11.448Z,5.75
2023-04-07T04:13:22.623Z,5.85
2023-04-07T04:15:25.394Z,6.05
2023-04-07T04:17:27.312Z,5.97
2023-04-07T04:19:29.121Z,5.90
2023-04-07T04:21:32.838Z,5.63
2023-04-07T04:23:34.605Z,5.70
2023-04-07T04:25:39.710Z,5.75
2023-04-07T04:27:43.517Z,5.85
2023-04-07T04:29:51.834Z,5.60
2023-04-07T04:32:00.413Z,5.90
2023-04-07T04:34:02.453Z,6.10
2023-04-07T04:36:05.897Z,5.97
2023-04-07T04:38:07.992Z,5.93
2023-04-07T04:40:11.870Z,5.43
2023-04-07T04:42:16.758Z,5.55
2023-04-07T04:44:19.258Z,5.60
2023-04-07T04:46:20.919Z,6.78
2023-04-07T04:48:24.153Z,6.82
2023-04-07T04:50:25.667Z,7.55
2023-04-07T04:52:28.746Z,7.45
2023-04-07T04:54:30.776Z,7.20
2023-04-07T04:56:33.352Z,7.35
2023-04-07T04:58:35.423Z,7.22
2023-04-07T05:00:37.006Z,6.35
2023-04-07T05:02:43.274Z,6.22
2023-04-07T05:04:45.836Z,5.85
2023-04-07T05:06:55.760Z,5.40
2023-04-07T05:09:01.102Z,5.47
2023-04-07T05:11:09.074Z,5.32
2023-04-07T05:13:11.368Z,5.00
2023-04-07T05:15:12.886Z,5.30
2023-04-07T05:17:17.804Z,5.55
2023-04-07T05:19:22.500Z,5.60
2023-04-07T05:21:30.027Z,5.80
2023-04-07T05:23:36.531Z,5.47
2023-04-07T05:25:39.405Z,5.53
2023-04-07T05:27:41.140Z,5.90
2023-04-07T05:29:47.786Z,5.63
2023-04-07T05:31:58.092Z,5.28
2023-04-07T05:34:02.341Z,5.38
2023-04-07T05:36:09.771Z,5.28
2023-04-07T05:38:11.694Z,5.78
2023-04-07T05:40:14.531Z,5.45
2023-04-07T05:42:16.289Z,5.47
2023-04-07T05:44:26.024Z,5.65
2023-04-07T05:46:30.807Z,4.70
2023-04-07T05:48:33.249Z,5.45
2023-04-07T05:50:36.230Z,5.47
2023-04-07T05:52:41.364Z,5.30
2023-04-07T05:54:53.673Z,5.75
2023-04-07T05:56:56.569Z,5.50
2023-04-07T05:59:02.292Z,5.38
2023-04-07T06:01:03.914Z,5.72
2023-04-07T06:03:05.572Z,5.95
2023-04-07T06:05:16.675Z,5.28
2023-04-07T06:07:19.517Z,6.05
2023-04-07T06:09:24.643Z,6.07
2023-04-07T06:11:27.915Z,5.53
2023-04-07T06:13:29.445Z,5.03
2023-04-07T06:15:32.939Z,5.80
2023-04-07T06:17:34.425Z,5.55
2023-04-07T06:19:39.134Z,5.50
2023-04-07T06:21:40.788Z,4.97
2023-04-07T06:23:42.326Z,5.18
2023-04-07T06:25:43.829Z,4.97
2023-04-07T06:27:45.346Z,5.28
2023-04-07T06:29:47.006Z,4.90
2023-04-07T06:31:49.235Z,5.15
2023-04-07T06:33:51.445Z,4.90
2023-04-07T06:35:53.215Z,5.00
2023-04-07T06:37:54.733Z,5.05
2023-04-07T06:39:56.231Z,5.22
2023-04-07T06:41:57.841Z,4.65
2023-04-07T06:43:59.386Z,5.18
2023-04-07T06:46:01.083Z,4.70
2023-04-07T06:48:02.755Z,4.95
2023-04-07T06:50:04.849Z,4.85
2023-04-07T06:52:06.446Z,5.10
2023-04-07T06:54:12.725Z,4.70
2023-04-07T06:56:14.501Z,4.75
2023-04-07T06:58:19.938Z,5.40
2023-04-07T07:00:22.961Z,5.10
2023-04-07T07:02:24.946Z,4.85
2023-04-07T07:04:26.782Z,5.00
2023-04-07T07:06:31.396Z,4.95
2023-04-07T07:08:32.971Z,5.03
2023-04-07T07:10:34.482Z,5.10
2023-04-07T07:12:36.164Z,5.53
2023-04-07T07:14:37.834Z,5.47
2023-04-07T07:16:39.503Z,5.50
2023-04-07T07:18:41.163Z,5.60
2023-04-07T07:20:45.277Z,5.43
2023-04-07T07:22:46.663Z,5.85
2023-04-07T07:24:48.238Z,5.47
2023-04-07T07:26:49.743Z,5.43
2023-04-07T07:28:51.448Z,5.30
2023-04-07T07:30:52.964Z,5.47
2023-04-07T07:32:55.058Z,5.55
2023-04-07T07:34:59.166Z,5.75
2023-04-07T07:37:00.767Z,5.65
2023-04-07T07:39:02.385Z,5.57
2023-04-07T07:41:03.901Z,5.75
2023-04-07T07:43:06.103Z,5.40
2023-04-07T07:45:07.963Z,5.57
2023-04-07T07:47:09.440Z,5.95
2023-04-07T07:49:13.580Z,5.68
2023-04-07T07:51:15.305Z,6.13
2023-04-07T07:53:16.822Z,5.50
2023-04-07T07:55:18.276Z,5.93
2023-04-07T07:57:22.763Z,5.60
2023-04-07T07:59:24.360Z,5.90
2023-04-07T08:01:25.860Z,5.68
2023-04-07T08:03:27.538Z,5.53
2023-04-07T08:05:29.371Z,5.75
2023-04-07T08:07:31.105Z,5.80
2023-04-07T08:09:32.818Z,5.70
2023-04-07T08:11:34.389Z,5.53
2023-04-07T08:13:36.311Z,5.72
2023-04-07T08:15:38.053Z,6.00
2023-04-07T08:17:39.733Z,5.30
2023-04-07T08:19:41.248Z,5.07
2023-04-07T08:21:43.003Z,5.32
2023-04-07T08:23:44.748Z,5.13
2023-04-07T08:25:46.300Z,5.28
2023-04-07T08:27:47.967Z,5.82
2023-04-07T08:30:04.570Z,5.10
2023-04-07T08:32:06.204Z,5.65
2023-04-07T08:34:07.848Z,4.72
2023-04-07T08:36:09.710Z,5.57
2023-04-07T08:38:15.772Z,4.80
2023-04-07T08:40:17.832Z,5.28
2023-04-07T08:42:20.420Z,4.60
2023-04-07T08:44:23.571Z,5.28
2023-04-07T08:46:25.641Z,4.72
2023-04-07T08:48:33.696Z,4.70
2023-04-07T08:50:38.877Z,4.63
2023-04-07T08:52:44.313Z,4.60
2023-04-07T08:54:46.038Z,4.90
2023-04-07T08:56:48.011Z,4.13
2023-04-07T08:58:49.709Z,4.28
2023-04-07T09:00:51.817Z,4.05
2023-04-07T09:02:53.758Z,4.00
2023-04-07T09:04:55.491Z,3.47
2023-04-07T09:06:57.002Z,4.15
2023-04-07T09:08:59.276Z,3.83
2023-04-07T09:11:03.573Z,3.85
2023-04-07T09:13:05.091Z,3.60
2023-04-07T09:15:07.802Z,3.90
2023-04-07T09:17:09.479Z,3.70
2023-04-07T09:19:11.011Z,3.50
2023-04-07T09:21:15.835Z,3.60
2023-04-07T09:23:38.144Z,3.40
2023-04-07T09:25:39.636Z,3.60
2023-04-07T09:27:41.611Z,4.15
2023-04-07T09:29:44.748Z,3.60
2023-04-07T09:31:52.008Z,3.35
2023-04-07T09:33:53.991Z,4.05
2023-04-07T09:35:56.112Z,2.90
2023-04-07T09:38:08.713Z,3.70
2023-04-07T09:40:10.884Z,3.78
2023-04-07T09:42:13.558Z,3.60
2023-04-07T09:44:15.455Z,3.03
2023-04-07T09:46:19.014Z,3.38
2023-04-07T09:48:21.790Z,3.60
2023-04-07T09:50:37.222Z,3.30
2023-04-07T09:53:05.161Z,3.45
2023-04-07T09:55:07.550Z,3.30
2023-04-07T09:57:11.401Z,2.92
2023-04-07T09:59:14.398Z,2.95
2023-04-07T10:01:17.464Z,3.50
2023-04-07T10:03:23.147Z,3.92
2023-04-07T10:05:25.483Z,3.42
2023-04-07T10:07:30.085Z,3.70
2023-04-07T10:09:34.508Z,3.80
2023-04-07T10:11:37.748Z,3.47
2023-04-07T10:13:40.388Z,3.10
2023-04-07T10:15:42.820Z,3.35
2023-04-07T10:17:48.342Z,3.33
2023-04-07T10:19:51.416Z,3.30
2023-04-07T10:21:56.841Z,3.20
2023-04-07T10:24:28.181Z,3.45
2023-04-07T10:26:33.893Z,3.03
2023-04-07T10:28:40.041Z,3.33
2023-04-07T10:30:51.023Z,3.53
2023-04-07T10:33:01.532Z,3.28
2023-04-07T10:35:02.942Z,3.03
2023-04-07T10:37:16.301Z,3.20
2023-04-07T10:39:20.162Z,3.45
2023-04-07T10:41:38.062Z,3.50
2023-04-07T10:43:41.939Z,3.85
2023-04-07T10:45:46.938Z,3.35
2023-04-07T10:48:03.604Z,3.35
2023-04-07T10:50:33.223Z,3.58
2023-04-07T10:52:37.754Z,3.45
2023-04-07T10:54:40.145Z,3.28
2023-04-07T10:57:03.246Z,3.60
2023-04-07T10:59:17.305Z,3.60
2023-04-07T11:01:19.718Z,3.95
2023-04-07T11:03:21.358Z,4.05
2023-04-07T11:05:23.527Z,3.70
2023-04-07T11:07:44.491Z,4.03
2023-04-07T11:09:46.063Z,4.00
2023-04-07T11:11:48.799Z,4.65
2023-04-07T11:13:51.593Z,5.10
2023-04-07T11:15:53.866Z,4.80
2023-04-07T11:18:13.725Z,4.28
2023-04-07T11:20:15.595Z,4.20
2023-04-07T11:22:30.434Z,4.85
2023-04-07T11:24:33.079Z,4.05
2023-04-07T11:26:39.581Z,4.32
2023-04-07T11:28:55.634Z,5.03
2023-04-07T11:30:58.278Z,4.15
2023-04-07T11:32:59.893Z,3.63
2023-04-07T11:35:07.802Z,4.35
2023-04-07T11:37:22.930Z,4.32
2023-04-07T11:39:28.163Z,4.00
2023-04-07T11:41:32.663Z,3.72
2023-04-07T11:43:34.162Z,3.95
2023-04-07T11:45:35.961Z,3.95
2023-04-07T11:47:39.417Z,4.22
2023-04-07T11:49:48.782Z,4.00
2023-04-07T11:51:59.712Z,3.85
2023-04-07T11:54:01.417Z,4.00
2023-04-07T11:56:09.791Z,4.15
2023-04-07T11:58:12.006Z,3.92
2023-04-07T12:00:14.468Z,4.13
2023-04-07T12:02:34.876Z,3.65
2023-04-07T12:04:37.877Z,3.67
2023-04-07T12:06:41.485Z,3.85
2023-04-07T12:08:44.583Z,4.40
2023-04-07T12:10:46.639Z,3.45
2023-04-07T12:12:49.766Z,3.63
2023-04-07T12:14:51.612Z,3.50
2023-04-07T12:16:56.969Z,3.38
2023-04-07T12:18:58.432Z,3.45
2023-04-07T12:21:00.105Z,3.35
2023-04-07T12:23:01.582Z,3.20
2023-04-07T12:25:03.270Z,3.60
2023-04-07T12:27:05.233Z,3.30
2023-04-07T12:29:07.048Z,3.33
2023-04-07T12:31:08.588Z,3.40
2023-04-07T12:33:10.072Z,3.70
2023-04-07T12:35:11.562Z,3.38
2023-04-07T12:37:15.593Z,3.20
2023-04-07T12:39:17.269Z,7.25
2023-04-07T12:41:18.793Z,4.97
2023-04-07T12:43:20.564Z,4.65
2023-04-07T12:45:22.060Z,4.25
2023-04-07T12:47:23.740Z,3.83
2023-04-07T12:49:28.547Z,3.53
2023-04-07T12:51:31.761Z,3.75
2023-04-07T12:53:33.207Z,3.80
2023-04-07T12:55:35.669Z,4.05
2023-04-07T12:57:37.718Z,3.35
2023-04-07T12:59:39.449Z,3.50
2023-04-07T13:01:52.149Z,3.93
2023-04-07T13:04:33.652Z,3.60
2023-04-07T13:06:43.107Z,4.38
2023-04-07T13:08:57.292Z,4.55
2023-04-07T13:11:09.403Z,4.32
2023-04-07T13:13:18.306Z,4.22
2023-04-07T13:15:22.100Z,4.85
2023-04-07T13:17:31.523Z,4.25
2023-04-07T13:19:37.056Z,4.07
2023-04-07T13:21:46.020Z,4.47
2023-04-07T13:23:54.675Z,4.38
2023-04-07T13:25:56.273Z,3.60
2023-04-07T13:28:00.786Z,3.70
2023-04-07T13:30:02.397Z,3.88
2023-04-07T13:32:08.853Z,3.38
2023-04-07T13:34:10.475Z,3.97
2023-04-07T13:36:12.064Z,4.10
2023-04-07T13:38:14.262Z,3.90
2023-04-07T13:40:15.779Z,4.68
2023-04-07T13:42:17.554Z,4.38
2023-04-07T13:44:19.020Z,3.72
2023-04-07T13:46:28.412Z,3.75
2023-04-07T13:48:30.221Z,3.78
2023-04-07T13:50:31.747Z,4.50
2023-04-07T13:52:35.460Z,4.90
2023-04-07T13:54:38.111Z,4.70
2023-04-07T13:56:40.329Z,4.05
2023-04-07T13:58:41.854Z,4.20
2023-04-07T14:00:43.316Z,4.32
2023-04-07T14:02:45.853Z,4.85
2023-04-07T14:04:50.386Z,4.93
2023-04-07T14:09:17.759Z,4.90
2023-04-07T14:11:22.545Z,4.82
2023-04-07T14:13:24.110Z,5.35
2023-04-07T14:15:26.336Z,4.60
2023-04-07T14:17:29.077Z,4.35
2023-04-07T14:19:33.285Z,4.90
2023-04-07T14:21:35.231Z,4.60
2023-04-07T14:23:38.073Z,5.95
2023-04-07T14:25:42.597Z,5.30
2023-04-07T14:27:44.202Z,4.70
2023-04-07T14:29:45.970Z,4.50
2023-04-07T14:31:48.767Z,4.70
2023-04-07T14:33:55.554Z,5.00
2023-04-07T14:35:57.734Z,5.10
2023-04-07T14:37:59.686Z,5.25
2023-04-07T14:40:03.387Z,5.82
2023-04-07T14:42:05.218Z,5.55
2023-04-07T14:44:06.828Z,5.38
2023-04-07T14:46:08.553Z,5.60
2023-04-07T14:48:10.151Z,5.55
2023-04-07T14:50:12.774Z,5.22
2023-04-07T14:52:14.588Z,5.50
2023-04-07T14:54:16.072Z,5.60
2023-04-07T14:56:17.516Z,5.75
2023-04-07T14:58:18.988Z,5.50
2023-04-07T15:00:20.526Z,5.65
2023-04-07T15:02:22.264Z,5.10
2023-04-07T15:04:24.045Z,5.38
2023-04-07T15:06:26.378Z,5.90
2023-04-07T15:08:27.842Z,5.18
2023-04-07T15:10:30.046Z,5.05
2023-04-07T15:12:33.341Z,4.80
2023-04-07T15:14:37.607Z,4.50
2023-04-07T15:16:41.497Z,4.93
2023-04-07T15:18:47.131Z,4.50
2023-04-07T15:20:48.647Z,4.70
2023-04-07T15:22:52.459Z,4.45
2023-04-07T15:24:54.156Z,4.50
2023-04-07T15:26:55.597Z,5.00
2023-04-07T15:28:57.159Z,4.45
2023-04-07T15:31:01.053Z,4.35
2023-04-07T15:33:04.213Z,4.78
2023-04-07T15:35:06.408Z,5.38
2023-04-07T15:37:08.559Z,4.75
2023-04-07T15:39:10.122Z,4.65
2023-04-07T15:41:19.051Z,5.00
2023-04-07T15:43:20.568Z,5.47
2023-04-07T15:45:23.041Z,5.72
2023-04-07T15:47:24.516Z,5.90
2023-04-07T15:49:26.281Z,6.13
2023-04-07T15:51:31.499Z,6.03
2023-04-07T15:53:33.131Z,5.30
2023-04-07T15:55:37.592Z,5.38
2023-04-07T15:57:39.108Z,5.10
2023-04-07T15:59:40.591Z,5.18
2023-04-07T16:01:42.456Z,5.18
2023-04-07T16:03:44.232Z,5.40
2023-04-07T16:05:45.825Z,5.32
2023-04-07T16:07:47.661Z,5.68
2023-04-07T16:09:49.197Z,5.32
2023-04-07T16:11:50.741Z,5.43
2023-04-07T16:13:52.138Z,5.40
2023-04-07T16:15:57.474Z,4.55
2023-04-07T16:17:59.743Z,4.97
2023-04-07T16:20:01.629Z,5.10
2023-04-07T16:22:03.139Z,5.20
2023-04-07T16:24:04.965Z,4.88
2023-04-07T16:26:06.548Z,5.13
2023-04-07T16:28:08.118Z,5.05
2023-04-07T16:30:10.952Z,5.13
2023-04-07T16:32:12.701Z,5.30
2023-04-07T16:34:14.434Z,5.03
2023-04-07T16:36:16.101Z,5.05
2023-04-07T16:38:19.731Z,4.80
2023-04-07T16:40:22.031Z,5.28
2023-04-07T16:42:28.639Z,6.43
2023-04-07T16:44:30.309Z,6.10
2023-04-07T16:46:32.085Z,5.85
2023-04-07T16:48:34.830Z,6.43
2023-04-07T16:50:42.195Z,5.68
2023-04-07T16:52:43.615Z,5.97
2023-04-07T16:54:45.558Z,6.30
2023-04-07T16:56:49.577Z,7.18
2023-04-07T16:58:51.729Z,8.18
2023-04-07T17:00:56.460Z,7.72
2023-04-07T17:02:58.220Z,8.43
2023-04-07T17:04:59.775Z,8.32
2023-04-07T17:07:01.408Z,8.35
2023-04-07T17:09:03.043Z,9.75
2023-04-07T17:11:09.045Z,9.45
2023-04-07T17:13:10.637Z,8.43
2023-04-07T17:15:12.187Z,8.63
2023-04-07T17:17:14.040Z,8.32
2023-04-07T17:19:15.817Z,7.90
2023-04-07T17:21:17.327Z,7.97
2023-04-07T17:23:18.814Z,6.57
2023-04-07T17:25:20.557Z,6.32
2023-04-07T17:27:22.001Z,6.20
2023-04-07T17:29:28.771Z,6.00
2023-04-07T17:31:30.394Z,5.88
2023-04-07T17:33:32.203Z,6.15
2023-04-07T17:35:36.622Z,6.93
2023-04-07T17:37:38.367Z,6.65
2023-04-07T17:39:39.804Z,6.00
2023-04-07T17:41:41.558Z,6.10
2023-04-07T17:43:43.090Z,6.10
2023-04-07T17:45:48.226Z,5.95
2023-04-07T17:47:49.783Z,5.45
2023-04-07T17:49:51.238Z,5.57
2023-04-07T17:51:52.676Z,5.22
2023-04-07T17:53:54.342Z,5.20
2023-04-07T17:55:55.974Z,5.03
2023-04-07T17:58:00.837Z,5.65
2023-04-07T18:00:04.465Z,5.55
2023-04-07T18:02:14.303Z,5.68
2023-04-07T18:04:21.391Z,5.93
2023-04-07T18:06:23.407Z,6.32
2023-04-07T18:08:26.261Z,6.40
2023-04-07T18:10:36.752Z,6.60
2023-04-07T18:12:44.045Z,6.43
2023-04-07T18:14:48.555Z,6.50
2023-04-07T18:17:01.959Z,6.45
2023-04-07T18:19:29.402Z,5.88
2023-04-07T18:21:56.545Z,5.30
2023-04-07T18:23:58.020Z,5.78
2023-04-07T18:26:45.695Z,6.13
2023-04-07T18:29:21.420Z,6.70
2023-04-07T18:31:42.488Z,7.03
2023-04-07T18:33:53.400Z,7.28
2023-04-07T18:35:57.990Z,7.38
2023-04-07T18:38:04.539Z,6.93
2023-04-07T18:40:07.502Z,6.97
2023-04-07T18:42:09.232Z,6.70
2023-04-07T18:44:11.560Z,6.60
2023-04-07T18:46:22.634Z,6.43
2023-04-07T18:48:24.251Z,6.63
2023-04-07T18:50:25.787Z,6.82
2023-04-07T18:52:29.644Z,6.57
2023-04-07T18:54:31.389Z,6.38
2023-04-07T18:56:33.595Z,6.80
2023-04-07T18:58:36.840Z,6.93
2023-04-07T19:00:41.102Z,6.90
2023-04-07T19:02:44.761Z,7.00
2023-04-07T19:04:46.523Z,6.53
2023-04-07T19:06:51.762Z,7.15
2023-04-07T19:08:53.744Z,8.18
2023-04-07T19:10:56.141Z,8.45
2023-04-07T19:12:57.721Z,8.73
2023-04-07T19:14:59.382Z,9.38
2023-04-07T19:17:01.367Z,9.23
2023-04-07T19:19:02.986Z,9.18
2023-04-07T19:21:04.661Z,10.15
2023-04-07T19:23:07.881Z,10.20
2023-04-07T19:25:09.785Z,10.82
2023-04-07T19:27:12.817Z,10.43
2023-04-07T19:29:14.346Z,9.40
2023-04-07T19:31:15.960Z,9.80
2023-04-07T19:33:20.698Z,8.75
2023-04-07T19:35:22.555Z,8.82
2023-04-07T19:37:27.058Z,9.00
2023-04-07T19:39:29.112Z,15.07
2023-04-07T19:41:31.355Z,17.65
2023-04-07T19:43:33.350Z,14.93
2023-04-07T19:45:48.032Z,11.95
2023-04-07T19:47:50.651Z,10.77
2023-04-07T19:49:52.184Z,9.48
2023-04-07T19:51:54.413Z,8.32
2023-04-07T19:53:55.924Z,7.90
2023-04-07T19:55:57.486Z,7.07
2023-04-07T19:57:59.135Z,7.10
2023-04-07T20:00:00.777Z,6.57
2023-04-07T20:02:08.597Z,6.65
2023-04-07T20:04:10.452Z,7.30
2023-04-07T20:06:14.678Z,7.10
2023-04-07T20:08:19.102Z,8.45
2023-04-07T20:10:20.727Z,9.23
2023-04-07T20:12:22.365Z,9.95
2023-04-07T20:14:23.990Z,10.70
2023-04-07T20:16:25.712Z,11.00
2023-04-07T20:18:28.234Z,10.30
2023-04-07T20:20:32.957Z,10.02
2023-04-07T20:22:35.406Z,9.75
2023-04-07T20:26:55.949Z,9.07
2023-04-07T20:29:00.723Z,8.50
2023-04-07T20:31:02.308Z,7.45
2023-04-07T20:33:03.823Z,5.72
2023-04-07T20:35:05.721Z,5.57
2023-04-07T20:37:07.588Z,5.30
2023-04-07T20:39:09.300Z,5.68
2023-04-07T20:41:15.609Z,4.80
2023-04-07T20:43:18.194Z,4.95
2023-04-07T20:45:21.772Z,5.10
2023-04-07T20:47:23.599Z,5.40
2023-04-07T20:49:25.314Z,4.93
2023-04-07T20:51:27.220Z,5.32
2023-04-07T20:53:28.699Z,5.00
2023-04-07T20:55:30.275Z,5.38
2023-04-07T20:57:31.952Z,5.20
2023-04-07T20:59:39.198Z,5.97
2023-04-07T21:01:41.065Z,5.93
2023-04-07T21:03:42.775Z,6.10
2023-04-07T21:05:45.814Z,6.28
2023-04-07T21:07:50.510Z,6.53
2023-04-07T21:09:52.086Z,6.78
2023-04-07T21:11:53.673Z,7.00
2023-04-07T21:13:55.213Z,6.35
2023-04-07T21:15:59.338Z,6.47
2023-04-07T21:18:01.242Z,6.35
2023-04-07T21:20:04.346Z,5.90
2023-04-07T21:22:08.588Z,5.80
2023-04-07T21:24:10.078Z,5.30
2023-04-07T21:26:11.705Z,5.05
2023-04-07T21:28:16.503Z,6.13
2023-04-07T21:30:18.190Z,6.18
2023-04-07T21:32:20.667Z,6.13
2023-04-07T21:34:22.186Z,6.13
2023-04-07T21:36:26.306Z,6.13
2023-04-07T21:38:28.071Z,5.93
2023-04-07T21:40:47.602Z,6.05
2023-04-07T21:42:49.100Z,5.88
2023-04-07T21:44:50.779Z,6.15
2023-04-07T21:46:52.686Z,5.72
2023-04-07T21:48:59.022Z,5.93
2023-04-07T21:51:02.315Z,5.78
2023-04-07T21:53:03.976Z,5.20
2023-04-07T21:55:05.892Z,4.93
2023-04-07T21:57:12.017Z,5.45
2023-04-07T21:59:13.685Z,5.07
2023-04-07T22:01:15.676Z,5.40
2023-04-07T22:03:17.334Z,5.00
2023-04-07T22:05:19.180Z,5.57
2023-04-07T22:07:30.358Z,5.35
2023-04-07T22:09:31.898Z,5.43
2023-04-07T22:11:33.851Z,5.85
2023-04-07T22:13:38.446Z,5.95
2023-04-07T22:15:39.994Z,6.30
2023-04-07T22:17:41.757Z,5.80
2023-04-07T22:19:43.479Z,6.00
2023-04-07T22:21:45.369Z,6.45
2023-04-07T22:23:50.716Z,6.63
2023-04-07T22:25:52.299Z,6.45
2023-04-07T22:27:53.851Z,6.40
2023-04-07T22:29:55.619Z,6.18
2023-04-07T22:31:57.513Z,5.93
2023-04-07T22:33:59.125Z,5.65
2023-04-07T22:36:00.643Z,6.38
2023-04-07T22:38:02.147Z,6.15
2023-04-07T22:40:03.869Z,6.05
2023-04-07T22:42:05.851Z,5.72
2023-04-07T22:44:07.356Z,5.80
2023-04-07T22:46:09.002Z,5.90
2023-04-07T22:48:11.150Z,5.65
2023-04-07T22:50:12.866Z,5.63
2023-04-07T22:52:17.007Z,5.72
2023-04-07T22:54:19.638Z,4.90
2023-04-07T22:56:21.272Z,5.18
2023-04-07T22:58:22.698Z,5.85
2023-04-07T23:00:24.226Z,5.80
2023-04-07T23:02:28.612Z,5.80
2023-04-07T23:04:30.183Z,6.30
2023-04-07T23:06:32.138Z,6.15
2023-04-07T23:08:33.947Z,6.00
2023-04-07T23:10:35.432Z,5.95
2023-04-07T23:12:37.861Z,6.30
2023-04-07T23:14:39.305Z,6.20
2023-04-07T23:16:41.020Z,6.43
2023-04-07T23:18:48.259Z,6.45
2023-04-07T23:20:51.883Z,7.13
2023-04-07T23:22:53.578Z,7.15
2023-04-07T23:24:57.651Z,6.95
2023-04-07T23:27:01.717Z,6.68
2023-04-07T23:29:03.589Z,6.95
2023-04-07T23:31:06.618Z,6.43
2023-04-07T23:33:08.467Z,6.68
2023-04-07T23:35:10.470Z,6.53
2023-04-07T23:37:12.068Z,6.43
2023-04-07T23:39:16.481Z,6.97
2023-04-07T23:41:17.881Z,6.60
2023-04-07T23:43:19.335Z,7.05
2023-04-07T23:45:23.465Z,6.53
2023-04-07T23:47:25.035Z,6.15
2023-04-07T23:49:28.129Z,6.45
2023-04-07T23:51:32.468Z,6.50
2023-04-07T23:53:34.131Z,6.05
2023-04-07T23:55:35.735Z,6.75
2023-04-07T23:57:38.120Z,6.13
2023-04-07T23:59:39.797Z,6.35
